Little River, North Carolina
Current Conditions -  °F | °C
As of 4:53 AM on Saturday 22 Nov 2014 (Local Time) from KHKY Reporting Station
Clear Clear  
Wind Chill: 30°   Ceiling: Unl
Heat Index: 30°   Visibility: 10mi
Dew Point: 16°   Wind: 0mph
Humidity: 56%   Direction: NA
Pressure: 30.51"   Gusts: NA
Location:  35.9243°N, 81.216°W
Report Text: KHKY 220953Z AUTO 00000KT 10SM CLR M01/M09 A3051 RMK AO2 SLP327 T10111089
Loading
Personal Weather Stations






























Interactive Weather Map New forecast layout! Learn more

10-Day Weather Forecast

Advertisements
Track Severe Weather on mobile